Time;durP1;ratioP1;P1;durP2;ratioP2;P2;SDS_P1;SDS_P2;PMS_P1;PMS_P2;Temp;Humidity;BMP_temperature;BMP_pressure;BME280_temperature;BME280_humidity;BME280_pressure;Samples;Min_cycle;Max_cycle;Signal;HPM_P1;HPM_P2
2024/01/04 00:01:41;;;;;;;5.80;4.40;;;;;;;7.04;100.00;96083.17;110339;1242;59685;-74
2024/01/04 00:04:10;;;;;;;5.90;3.90;;;;;;;7.06;100.00;96088.54;110422;1242;71952;-74
2024/01/04 00:06:41;;;;;;;;;;;;;;;7.09;100.00;96092.10;110215;1243;69962;-75
2024/01/04 00:09:12;;;;;;;4.10;3.70;;;;;;;7.08;100.00;96091.56;110435;1242;67579;-77
2024/01/04 00:11:42;;;;;;;5.50;4.70;;;;;;;7.07;100.00;96089.21;110493;1241;59672;-75
2024/01/04 00:14:12;;;;;;;4.40;4.00;;;;;;;7.08;100.00;96088.06;110517;1243;59707;-74
2024/01/04 00:16:41;;;;;;;6.50;4.40;;;;;;;7.09;100.00;96087.09;110435;1241;70589;-75
2024/01/04 00:19:11;;;;;;;6.00;5.10;;;;;;;7.06;100.00;96085.94;110442;1241;69258;-75
2024/01/04 00:21:41;;;;;;;;;;;;;;;7.06;100.00;96086.83;110429;1241;69263;-75
2024/01/04 00:24:11;;;;;;;5.20;4.20;;;;;;;7.09;100.00;96078.23;110411;1242;59734;-76
2024/01/04 00:26:43;;;;;;;4.90;4.30;;;;;;;7.07;100.00;96073.73;110429;1243;59676;-76
2024/01/04 00:29:13;;;;;;;4.80;4.30;;;;;;;7.05;100.00;96065.91;110403;1241;72436;-76
2024/01/04 00:31:42;;;;;;;5.20;4.30;;;;;;;7.01;100.00;96074.59;110389;1242;68281;-75
2024/01/04 00:34:12;;;;;;;6.40;4.30;;;;;;;6.96;100.00;96082.41;110523;1241;69222;-76
2024/01/04 00:36:42;;;;;;;4.30;3.90;;;;;;;6.96;100.00;96077.45;110452;1243;59737;-77
2024/01/04 00:39:13;;;;;;;5.20;4.20;;;;;;;6.99;100.00;96074.55;110462;1247;59691;-76
2024/01/04 00:41:43;;;;;;;5.10;3.80;;;;;;;7.02;100.00;96072.77;110502;1241;71419;-76
2024/01/04 00:44:13;;;;;;;3.90;3.40;;;;;;;7.07;100.00;96070.83;110531;1249;69264;-76
2024/01/04 00:46:43;;;;;;;5.60;3.80;;;;;;;7.10;100.00;96068.29;110412;1242;70216;-76
2024/01/04 00:49:13;;;;;;;;;;;;;;;7.15;100.00;96069.48;110415;1241;59692;-74
2024/01/04 00:51:42;;;;;;;5.00;3.60;;;;;;;7.18;100.00;96068.92;110156;1245;59703;-75
2024/01/04 00:54:12;;;;;;;4.10;3.70;;;;;;;7.22;100.00;96066.69;110609;1241;71748;-76
2024/01/04 00:56:42;;;;;;;4.20;3.60;;;;;;;7.19;100.00;96073.17;110432;1242;69293;-74
2024/01/04 00:59:12;;;;;;;3.90;3.50;;;;;;;7.22;100.00;96078.34;110349;1242;69436;-76
2024/01/04 01:01:42;;;;;;;4.00;3.20;;;;;;;7.23;100.00;96076.45;110338;1242;59679;-76
2024/01/04 01:04:11;;;;;;;5.00;3.50;;;;;;;7.24;100.00;96080.92;110402;1243;59674;-75
2024/01/04 01:06:41;;;;;;;4.50;3.50;;;;;;;7.24;100.00;96072.64;110387;1247;70637;-78
2024/01/04 01:09:11;;;;;;;5.60;3.40;;;;;;;7.25;100.00;96072.14;110387;1240;68514;-73
2024/01/04 01:11:41;;;;;;;;;;;;;;;7.21;100.00;96072.45;110383;1238;69625;-75
2024/01/04 01:14:11;;;;;;;5.00;3.90;;;;;;;7.27;100.00;96064.77;110162;1244;59659;-76
2024/01/04 01:16:41;;;;;;;4.30;3.70;;;;;;;7.21;100.00;96068.70;110483;1238;59657;-75
2024/01/04 01:19:11;;;;;;;3.40;3.10;;;;;;;7.18;100.00;96066.46;110390;1242;71689;-76
2024/01/04 01:21:41;;;;;;;4.20;3.40;;;;;;;7.18;100.00;96065.27;110260;1242;69218;-75
2024/01/04 01:24:12;;;;;;;5.00;3.20;;;;;;;7.20;100.00;96063.38;110316;1241;68534;-75
2024/01/04 01:26:43;;;;;;;3.60;3.30;;;;;;;7.21;100.00;96058.65;110404;1242;59794;-75
2024/01/04 01:29:13;;;;;;;3.30;2.90;;;;;;;7.18;100.00;96062.66;110350;1242;59627;-75
2024/01/04 01:31:44;;;;;;;3.80;3.20;;;;;;;7.08;100.00;96056.50;110393;1242;71194;-75
2024/01/04 01:34:14;;;;;;;4.50;3.00;;;;;;;7.10;100.00;96048.21;110420;1238;69908;-76
2024/01/04 01:36:45;;;;;;;3.40;3.10;;;;;;;7.13;100.00;96045.33;110487;1241;69175;-77
2024/01/04 01:39:16;;;;;;;5.20;3.40;;;;;;;7.10;100.00;96047.02;110158;1245;60198;-75
2024/01/04 01:41:47;;;;;;;3.10;2.80;;;;;;;7.06;100.00;96039.71;110377;1242;60089;-76
2024/01/04 01:44:18;;;;;;;3.60;3.00;;;;;;;7.07;100.00;96042.75;110444;1242;70854;-76
2024/01/04 01:46:49;;;;;;;3.50;3.10;;;;;;;7.06;100.00;96041.30;110145;1242;69253;-75
2024/01/04 01:49:20;;;;;;;3.10;2.40;;;;;;;7.01;100.00;96041.47;110376;1241;68351;-75
2024/01/04 01:51:53;;;;;;;3.00;2.30;;;;;;;7.00;100.00;96048.49;110383;1243;59745;-77
2024/01/04 01:54:25;;;;;;;3.20;2.60;;;;;;;7.08;100.00;96048.60;110529;1241;59624;-75
2024/01/04 01:56:57;;;;;;;3.20;2.60;;;;;;;7.06;100.00;96050.08;110337;1239;70435;-75
2024/01/04 01:59:27;;;;;;;3.00;2.70;;;;;;;7.09;100.00;96047.63;110189;1244;69303;-75
2024/01/04 02:02:00;;;;;;;2.80;2.40;;;;;;;7.10;100.00;96053.45;110185;1241;68662;-75
2024/01/04 02:04:32;;;;;;;2.60;2.30;;;;;;;7.08;100.00;96058.94;110437;1242;59724;-76
2024/01/04 02:07:06;;;;;;;3.90;2.40;;;;;;;7.13;100.00;96071.91;110432;1245;59678;-74
2024/01/04 02:09:37;;;;;;;3.10;2.40;;;;;;;7.22;100.00;96090.80;110215;1241;71216;-77
2024/01/04 02:12:13;;;;;;;3.70;2.40;;;;;;;7.24;100.00;96095.31;110358;1241;68387;-76
2024/01/04 02:14:44;;;;;;;3.20;2.30;;;;;;;7.15;100.00;96096.88;110201;1244;69418;-74
2024/01/04 02:17:16;;;;;;;2.90;2.40;;;;;;;7.15;100.00;96094.48;110413;1243;59678;-75
2024/01/04 02:19:47;;;;;;;3.30;2.80;;;;;;;7.06;100.00;96046.09;110451;1242;59657;-76
2024/01/04 02:22:18;;;;;;;4.30;3.20;;;;;;;7.06;100.00;96016.19;110341;1244;71871;-76
2024/01/04 02:24:50;;;;;;;3.90;3.50;;;;;;;6.89;100.00;96023.59;110362;1242;69290;-77
2024/01/04 02:27:21;;;;;;;3.90;2.90;;;;;;;6.84;100.00;96024.00;110425;1242;69315;-77
2024/01/04 02:29:52;;;;;;;3.90;3.00;;;;;;;6.71;100.00;96019.48;110477;1241;59727;-77
2024/01/04 02:32:23;;;;;;;3.20;2.70;;;;;;;6.63;100.00;96026.36;110366;1241;59730;-77
2024/01/04 02:34:54;;;;;;;3.20;2.70;;;;;;;6.61;100.00;96027.04;110504;1241;70421;-77
2024/01/04 02:37:24;;;;;;;3.60;2.50;;;;;;;6.56;100.00;96023.60;110199;1244;69481;-77
2024/01/04 02:39:55;;;;;;;3.10;2.70;;;;;;;6.48;100.00;96020.94;110356;1241;68466;-77
2024/01/04 02:42:25;;;;;;;3.50;3.20;;;;;;;6.43;100.00;96024.98;110426;1240;59740;-77
2024/01/04 02:44:56;;;;;;;3.70;3.10;;;;;;;6.43;100.00;96028.42;110419;1241;59675;-77
2024/01/04 02:47:28;;;;;;;3.70;3.20;;;;;;;6.33;100.00;96029.72;110471;1241;70523;-76
2024/01/04 02:50:00;;;;;;;4.60;3.40;;;;;;;6.35;100.00;96025.29;110165;1244;69257;-77
2024/01/04 02:52:30;;;;;;;4.50;3.40;;;;;;;6.31;100.00;96026.80;110344;1240;68637;-77
2024/01/04 02:55:02;;;;;;;3.30;2.90;;;;;;;6.26;100.00;96020.23;110355;1242;59706;-76
2024/01/04 02:57:32;;;;;;;4.70;3.40;;;;;;;6.21;100.00;96018.05;110436;1238;59652;-77
2024/01/04 03:00:05;;;;;;;3.90;3.10;;;;;;;6.14;100.00;96014.06;110396;1242;70473;-77
2024/01/04 03:02:35;;;;;;;4.90;3.00;;;;;;;6.09;100.00;96006.86;110425;1242;68285;-77
2024/01/04 03:05:05;;;;;;;2.90;2.60;;;;;;;6.03;100.00;96004.84;110235;1244;68655;-77
2024/01/04 03:07:36;;;;;;;3.60;2.80;;;;;;;5.98;100.00;95998.00;110380;1244;59664;-76
2024/01/04 03:10:07;;;;;;;3.80;2.90;;;;;;;5.93;100.00;95993.91;110540;1240;59749;-77
2024/01/04 03:12:39;;;;;;;2.80;2.40;;;;;;;5.88;100.00;95997.05;110476;1238;71451;-77
2024/01/04 03:15:10;;;;;;;4.50;3.10;;;;;;;5.82;100.00;95999.56;110414;1241;69093;-77
2024/01/04 03:17:41;;;;;;;3.80;2.70;;;;;;;5.77;100.00;95995.46;110432;1239;68527;-76
2024/01/04 03:20:14;;;;;;;3.70;2.60;;;;;;;5.71;100.00;95999.70;110446;1243;59700;-76
2024/01/04 03:22:45;;;;;;;5.50;3.30;;;;;;;5.65;100.00;96007.06;110408;1240;59696;-76
2024/01/04 03:25:16;;;;;;;3.90;2.50;;;;;;;5.64;100.00;96005.41;110358;1242;70807;-77
2024/01/04 03:27:47;;;;;;;3.90;2.80;;;;;;;5.63;100.00;96004.07;110583;1242;69119;-77
2024/01/04 03:30:19;;;;;;;5.20;3.10;;;;;;;5.62;100.00;96005.05;110645;1245;69136;-76
2024/01/04 03:32:50;;;;;;;3.80;3.10;;;;;;;5.60;100.00;95993.63;110654;1242;59711;-77
2024/01/04 03:35:21;;;;;;;3.40;2.90;;;;;;;5.55;100.00;95986.36;110589;1241;59731;-76
2024/01/04 03:37:56;;;;;;;4.00;2.80;;;;;;;5.52;100.00;95988.71;110590;1241;70448;-76
2024/01/04 03:40:26;;;;;;;2.70;2.30;;;;;;;5.48;100.00;95984.47;110625;1241;68310;-77
2024/01/04 03:42:58;;;;;;;2.40;2.20;;;;;;;5.44;100.00;95986.35;110671;1241;69251;-77
2024/01/04 03:45:28;;;;;;;3.10;2.40;;;;;;;5.40;100.00;95984.94;110541;1241;59694;-76
2024/01/04 03:47:59;;;;;;;2.70;2.20;;;;;;;5.36;100.00;95981.91;110395;1241;59681;-77
2024/01/04 03:50:30;;;;;;;3.60;2.90;;;;;;;5.33;100.00;95979.59;110579;1239;71304;-77
2024/01/04 03:53:00;;;;;;;4.30;3.30;;;;;;;5.31;100.00;95977.46;110520;1241;69117;-77
2024/01/04 03:55:31;;;;;;;3.80;3.30;;;;;;;5.22;100.00;95975.20;110373;1241;68538;-77
2024/01/04 03:58:02;;;;;;;3.60;2.90;;;;;;;5.13;100.00;95978.85;110415;1245;59648;-77
2024/01/04 04:00:31;;;;;;;4.40;3.10;;;;;;;5.06;100.00;95978.31;110525;1242;59689;-76
2024/01/04 04:03:02;;;;;;;5.20;3.30;;;;;;;5.00;100.00;95982.84;110533;1241;70582;-77
2024/01/04 04:05:34;;;;;;;4.20;3.50;;;;;;;4.92;100.00;95982.28;110550;1242;68342;-76
2024/01/04 04:08:05;;;;;;;4.20;3.70;;;;;;;4.82;100.00;95988.13;110423;1241;68511;-76
2024/01/04 04:10:35;;;;;;;4.10;3.30;;;;;;;4.74;100.00;95990.09;110514;1241;59757;-76
2024/01/04 04:13:08;;;;;;;3.80;3.00;;;;;;;4.69;100.00;95994.98;110488;1242;59675;-76
2024/01/04 04:15:38;;;;;;;2.60;2.40;;;;;;;4.65;100.00;96001.63;110439;1241;70632;-76
2024/01/04 04:18:09;;;;;;;4.30;2.80;;;;;;;4.65;100.00;96000.82;110537;1241;69291;-76
2024/01/04 04:20:41;;;;;;;2.60;2.30;;;;;;;4.66;100.00;96008.11;110615;1242;68812;-76
2024/01/04 04:23:12;;;;;;;5.20;3.60;;;;;;;4.67;100.00;96013.23;110581;1240;59712;-76
2024/01/04 04:25:44;;;;;;;5.10;4.00;;;;;;;4.68;100.00;96014.20;110434;1241;59640;-76
2024/01/04 04:28:14;;;;;;;5.40;4.80;;;;;;;4.72;100.00;96024.09;110391;1241;71441;-76
2024/01/04 04:30:45;;;;;;;5.10;4.10;;;;;;;4.77;100.00;96027.37;110314;1241;68295;-76
2024/01/04 04:33:17;;;;;;;4.00;3.50;;;;;;;4.79;100.00;96032.88;110293;1241;69341;-76
2024/01/04 04:35:48;;;;;;;4.40;3.90;;;;;;;4.80;100.00;96033.31;110269;1248;60111;-76
2024/01/04 04:38:31;;;;;;;6.00;3.70;;;;;;;4.81;100.00;96027.92;110315;1245;59694;-76
2024/01/04 04:41:07;;;;;;;4.90;4.20;;;;;;;4.82;100.00;96028.55;110269;1241;70660;-76
2024/01/04 04:43:38;;;;;;;5.10;4.20;;;;;;;4.80;100.00;96027.98;110305;1241;69211;-76
2024/01/04 04:46:10;;;;;;;4.60;4.00;;;;;;;4.78;100.00;96021.08;110341;1241;67852;-75
2024/01/04 04:48:40;;;;;;;4.30;3.60;;;;;;;4.75;100.00;96016.27;110411;1242;59721;-75
2024/01/04 04:51:12;;;;;;;4.00;3.60;;;;;;;4.74;100.00;96013.77;110505;1240;59727;-76
2024/01/04 04:53:42;;;;;;;4.00;3.00;;;;;;;4.72;100.00;96009.25;110444;1241;71411;-75
2024/01/04 04:56:14;;;;;;;4.90;3.60;;;;;;;4.71;100.00;96004.45;110449;1241;69596;-75
2024/01/04 04:58:44;;;;;;;5.00;3.50;;;;;;;4.69;100.00;96002.41;110289;1241;69354;-75
2024/01/04 05:01:14;;;;;;;4.80;3.60;;;;;;;4.65;100.00;95997.99;110419;1241;59740;-75
2024/01/04 05:03:43;;;;;;;4.80;3.50;;;;;;;4.64;100.00;95996.18;110577;1241;59664;-75
2024/01/04 05:06:18;;;;;;;4.50;3.40;;;;;;;4.62;100.00;96000.64;110771;1241;71587;-75
2024/01/04 05:08:49;;;;;;;6.20;4.00;;;;;;;4.59;100.00;96003.59;110830;1241;68272;-75
2024/01/04 05:11:19;;;;;;;4.90;4.20;;;;;;;4.58;100.00;96001.80;110789;1240;68558;-75
2024/01/04 05:13:49;;;;;;;5.60;4.40;;;;;;;4.56;100.00;95996.23;110720;1244;59663;-76
2024/01/04 05:16:20;;;;;;;;;;;;;;;4.56;100.00;95988.95;110669;1242;59701;-78
2024/01/04 05:18:50;;;;;;;7.60;5.90;;;;;;;4.54;100.00;95985.28;110501;1241;71362;-75
2024/01/04 05:21:22;;;;;;;10.20;7.90;;;;;;;4.50;100.00;95991.15;110400;1241;69345;-75
2024/01/04 05:23:52;;;;;;;12.30;8.20;;;;;;;4.23;100.00;95996.66;110359;1241;68733;-75
2024/01/04 05:26:24;;;;;;;9.20;6.80;;;;;;;4.19;100.00;96002.67;110540;1241;60087;-74
2024/01/04 05:28:56;;;;;;;10.20;7.20;;;;;;;4.24;100.00;95993.68;110461;1241;59630;-74
2024/01/04 05:31:26;;;;;;;9.20;7.20;;;;;;;4.28;100.00;95997.35;110442;1241;70189;-75
2024/01/04 05:33:57;;;;;;;8.20;7.00;;;;;;;4.28;100.00;96000.45;110344;1243;69696;-75
2024/01/04 05:36:27;;;;;;;9.10;7.00;;;;;;;4.27;100.00;95988.64;110331;1244;68316;-75
2024/01/04 05:38:58;;;;;;;9.30;7.70;;;;;;;4.24;100.00;95988.81;110401;1241;60179;-75
2024/01/04 05:41:29;;;;;;;7.80;6.40;;;;;;;4.24;100.00;95988.69;110415;1242;59734;-75
2024/01/04 05:44:00;;;;;;;8.40;5.80;;;;;;;4.26;100.00;95981.45;110406;1241;71088;-75
2024/01/04 05:46:33;;;;;;;6.80;5.90;;;;;;;4.30;100.00;95980.80;110423;1241;69644;-75
2024/01/04 05:49:02;;;;;;;5.50;4.70;;;;;;;4.33;100.00;95985.59;110341;1241;69873;-75
2024/01/04 05:51:33;;;;;;;6.20;4.40;;;;;;;4.35;100.00;95997.94;110314;1241;59602;-74
2024/01/04 05:54:11;;;;;;;4.60;3.70;;;;;;;4.13;100.00;96007.38;110431;1241;59691;-74
2024/01/04 05:56:44;;;;;;;4.70;3.50;;;;;;;4.12;100.00;96009.66;110365;1241;71415;-74
2024/01/04 05:59:15;;;;;;;4.70;3.80;;;;;;;4.12;100.00;96006.05;110333;1241;68500;-74
2024/01/04 06:01:47;;;;;;;7.00;4.50;;;;;;;4.15;100.00;96012.25;110267;1241;68172;-74
2024/01/04 06:04:17;;;;;;;5.80;3.80;;;;;;;4.13;100.00;96012.91;110264;1242;59669;-75
2024/01/04 06:06:47;;;;;;;;;;;;;;;4.11;100.00;96009.92;110274;1241;59677;-75
2024/01/04 06:09:20;;;;;;;5.90;5.10;;;;;;;4.09;100.00;96004.72;110350;1239;71981;-75
2024/01/04 06:11:53;;;;;;;6.10;4.50;;;;;;;4.09;100.00;96008.88;110207;1240;69203;-74
2024/01/04 06:14:24;;;;;;;4.70;3.60;;;;;;;4.12;100.00;96016.09;110311;1241;69306;-75
2024/01/04 06:16:53;;;;;;;5.70;4.70;;;;;;;4.13;100.00;96010.13;110125;1244;60127;-75
2024/01/04 06:19:23;;;;;;;6.40;4.80;;;;;;;4.14;100.00;96014.38;110316;1242;60122;-74
2024/01/04 06:21:54;;;;;;;6.90;5.30;;;;;;;4.16;100.00;96015.08;110330;1248;70946;-76
2024/01/04 06:24:24;;;;;;;6.10;5.10;;;;;;;4.20;100.00;96011.91;110356;1241;69240;-75
2024/01/04 06:26:55;;;;;;;5.60;4.80;;;;;;;4.23;100.00;96001.72;110330;1241;69483;-76
2024/01/04 06:29:24;;;;;;;6.70;4.90;;;;;;;4.29;100.00;96004.72;110379;1241;59734;-75
2024/01/04 06:31:54;;;;;;;10.50;7.90;;;;;;;4.35;100.00;96004.10;110374;1241;59752;-75
2024/01/04 06:34:23;;;;;;;11.50;7.90;;;;;;;4.41;100.00;96003.70;110297;1243;71819;-75
2024/01/04 06:36:53;;;;;;;12.20;8.90;;;;;;;4.43;100.00;95998.87;110281;1243;68080;-75
2024/01/04 06:39:23;;;;;;;9.70;7.90;;;;;;;4.46;100.00;96000.20;110290;1243;69177;-75
2024/01/04 06:41:52;;;;;;;11.50;9.10;;;;;;;4.50;100.00;96003.19;110376;1239;59741;-75
2024/01/04 06:44:22;;;;;;;10.60;8.70;;;;;;;4.53;100.00;96003.67;110465;1241;59746;-75
2024/01/04 06:47:06;;;;;;;10.70;7.80;;;;;;;4.56;100.00;96001.22;110288;1241;70909;-75
2024/01/04 06:49:35;;;;;;;10.60;8.50;;;;;;;4.59;100.00;95994.33;110311;1241;69856;-74
2024/01/04 06:52:05;;;;;;;8.70;7.20;;;;;;;4.65;100.00;95991.34;110286;1241;69897;-75
2024/01/04 06:54:34;;;;;;;9.60;7.80;;;;;;;4.73;100.00;95990.70;110334;1241;59671;-75
2024/01/04 06:57:06;;;;;;;9.80;7.50;;;;;;;4.96;100.00;95990.27;110347;1243;60030;-76
2024/01/04 06:59:36;;;;;;;8.90;7.40;;;;;;;5.04;100.00;95984.80;110389;1240;71450;-75
2024/01/04 07:02:06;;;;;;;11.10;8.50;;;;;;;5.04;100.00;95982.55;110467;1237;69804;-75
2024/01/04 07:04:36;;;;;;;11.20;9.50;;;;;;;4.98;100.00;95977.02;110369;1240;68363;-75
2024/01/04 07:07:06;;;;;;;10.80;9.00;;;;;;;5.02;100.00;95972.85;110375;1241;59754;-75
2024/01/04 07:09:36;;;;;;;10.20;8.90;;;;;;;5.09;100.00;95979.24;110514;1239;59636;-76
2024/01/04 07:12:07;;;;;;;10.50;7.60;;;;;;;5.16;100.00;95981.17;110655;1241;71267;-76
2024/01/04 07:14:39;;;;;;;8.30;7.40;;;;;;;5.20;100.00;95978.50;110527;1241;69244;-76
2024/01/04 07:17:09;;;;;;;9.30;7.30;;;;;;;5.23;100.00;95969.11;110371;1241;68903;-76
2024/01/04 07:19:42;;;;;;;7.60;6.50;;;;;;;5.28;100.00;95963.70;110466;1238;59741;-76
2024/01/04 07:22:12;;;;;;;10.10;7.50;;;;;;;5.33;100.00;95962.45;110473;1239;59664;-75
2024/01/04 07:24:41;;;;;;;11.40;8.70;;;;;;;5.37;100.00;95962.48;110361;1242;71982;-76
2024/01/04 07:27:10;;;;;;;10.00;8.80;;;;;;;5.42;100.00;95958.17;110429;1249;69238;-76
2024/01/04 07:29:40;;;;;;;11.70;9.20;;;;;;;5.46;100.00;95953.22;110494;1240;69228;-76
2024/01/04 07:32:09;;;;;;;12.70;8.90;;;;;;;5.49;100.00;95958.82;110440;1241;59691;-75
2024/01/04 07:34:39;;;;;;;9.60;7.70;;;;;;;5.52;100.00;95960.83;110625;1242;59686;-76
2024/01/04 07:37:10;;;;;;;8.80;7.60;;;;;;;5.63;100.00;95964.16;110386;1241;70397;-75
2024/01/04 07:39:42;;;;;;;;;;;;;;;5.62;100.00;95970.08;110426;1242;69850;-75
2024/01/04 07:42:12;;;;;;;8.70;6.70;;;;;;;5.65;100.00;95971.98;110429;1242;69950;-76
2024/01/04 07:44:42;;;;;;;7.60;6.40;;;;;;;5.70;100.00;95968.73;110593;1241;59660;-76
2024/01/04 07:47:25;;;;;;;9.30;7.60;;;;;;;5.84;100.00;95964.16;110552;1240;59720;-76
2024/01/04 07:49:55;;;;;;;9.40;7.90;;;;;;;6.03;100.00;95960.58;110466;1241;71432;-75
2024/01/04 07:52:24;;;;;;;10.80;8.10;;;;;;;6.05;100.00;95957.04;110473;1240;68883;-75
2024/01/04 07:54:53;;;;;;;10.40;8.00;;;;;;;5.88;100.00;95956.59;110352;1242;69601;-75
2024/01/04 07:57:23;;;;;;;9.10;7.20;;;;;;;6.00;100.00;95955.64;110480;1242;59690;-75
2024/01/04 07:59:53;;;;;;;10.20;7.20;;;;;;;6.15;100.00;95950.36;110467;1241;59689;-75
2024/01/04 08:02:22;;;;;;;9.40;7.70;;;;;;;6.19;100.00;95947.08;110463;1238;71979;-75
2024/01/04 08:04:53;;;;;;;15.90;11.00;;;;;;;6.23;100.00;95940.58;110241;1243;69794;-75
2024/01/04 08:07:23;;;;;;;16.70;13.50;;;;;;;6.25;100.00;95924.35;110415;1241;69157;-75
2024/01/04 08:09:53;;;;;;;18.10;15.10;;;;;;;6.23;100.00;95924.27;110420;1242;59689;-77
2024/01/04 08:12:22;;;;;;;17.00;14.30;;;;;;;6.22;100.00;95926.48;110455;1241;59729;-75
2024/01/04 08:14:52;;;;;;;;;;;;;;;6.22;100.00;95929.20;110334;1241;71833;-75
2024/01/04 08:17:22;;;;;;;15.30;11.90;;;;;;;6.23;100.00;95931.94;110382;1241;67298;-76
2024/01/04 08:19:51;;;;;;;13.20;11.00;;;;;;;6.26;100.00;95935.09;110496;1238;68714;-76
2024/01/04 08:22:21;;;;;;;13.40;11.10;;;;;;;6.31;100.00;95932.14;110440;1241;59713;-76
2024/01/04 08:24:50;;;;;;;13.20;10.30;;;;;;;6.35;100.00;95930.27;110456;1241;59662;-76
2024/01/04 08:27:19;;;;;;;12.40;10.00;;;;;;;6.37;100.00;95926.80;110441;1241;72041;-75
2024/01/04 08:29:49;;;;;;;13.20;11.20;;;;;;;6.40;100.00;95925.89;110406;1238;70071;-75
2024/01/04 08:32:18;;;;;;;12.90;10.10;;;;;;;6.42;100.00;95932.84;110495;1241;68266;-71
2024/01/04 08:34:48;;;;;;;9.80;8.40;;;;;;;6.45;100.00;95930.48;110262;1242;59713;-74
2024/01/04 08:37:18;;;;;;;11.50;9.10;;;;;;;6.48;100.00;95920.40;110498;1240;59639;-74
2024/01/04 08:39:48;;;;;;;11.20;8.70;;;;;;;6.51;100.00;95915.49;110479;1239;71853;-75
2024/01/04 08:42:17;;;;;;;13.20;9.30;;;;;;;6.54;100.00;95913.53;110432;1241;69203;-74
2024/01/04 08:44:48;;;;;;;10.30;8.00;;;;;;;6.56;100.00;95917.17;110623;1239;69253;-74
2024/01/04 08:47:20;;;;;;;9.50;7.50;;;;;;;6.59;100.00;95922.64;110576;1241;59644;-74
2024/01/04 08:49:49;;;;;;;10.20;7.80;;;;;;;6.61;100.00;95923.11;110510;1239;59708;-75
2024/01/04 08:52:18;;;;;;;9.60;7.80;;;;;;;6.63;100.00;95924.69;110379;1238;71211;-74
2024/01/04 08:54:47;;;;;;;7.90;6.60;;;;;;;6.65;100.00;95925.44;110388;1241;69278;-74
2024/01/04 08:57:18;;;;;;;7.80;5.90;;;;;;;6.68;100.00;95925.08;110466;1241;69937;-75
2024/01/04 08:59:48;;;;;;;6.30;4.80;;;;;;;6.70;100.00;95924.55;110389;1238;59798;-75
2024/01/04 09:02:17;;;;;;;5.30;4.20;;;;;;;6.72;100.00;95920.55;110356;1246;60076;-74
2024/01/04 09:04:46;;;;;;;5.80;4.40;;;;;;;6.76;100.00;95918.15;110335;1238;71323;-74
2024/01/04 09:07:16;;;;;;;9.30;7.00;;;;;;;6.81;100.00;95915.29;110362;1238;68603;-74
2024/01/04 09:09:45;;;;;;;31.10;24.20;;;;;;;6.85;100.00;95917.61;110415;1241;69288;-75
2024/01/04 09:12:15;;;;;;;10.10;9.10;;;;;;;6.88;100.00;95920.81;110394;1238;59725;-74
2024/01/04 09:14:47;;;;;;;10.50;8.50;;;;;;;6.92;100.00;95917.40;110382;1242;59678;-74
2024/01/04 09:17:17;;;;;;;;;;;;;;;6.95;100.00;95918.85;110333;1241;70448;-74
2024/01/04 09:19:47;;;;;;;12.00;8.50;;;;;;;7.02;100.00;95918.45;110420;1242;69823;-74
2024/01/04 09:22:16;;;;;;;;;;;;;;;7.05;100.00;95915.55;110353;1241;68092;-75
2024/01/04 09:24:46;;;;;;;8.80;6.20;;;;;;;7.07;100.00;95915.75;110391;1241;59740;-74
2024/01/04 09:27:16;;;;;;;8.30;6.40;;;;;;;7.12;100.00;95915.88;110361;1242;59740;-75
2024/01/04 09:29:47;;;;;;;8.40;6.90;;;;;;;7.15;100.00;95905.94;110524;1242;70741;-75
2024/01/04 09:32:16;;;;;;;;;;;;;;;7.18;100.00;95904.67;110440;1242;69832;-75
2024/01/04 09:34:45;;;;;;;16.90;11.60;;;;;;;7.19;100.00;95903.75;110558;1241;69295;-76
2024/01/04 09:37:16;;;;;;;32.20;23.10;;;;;;;7.18;100.00;95902.08;110446;1238;59651;-75
2024/01/04 09:39:45;;;;;;;23.60;21.20;;;;;;;7.16;100.00;95901.31;110393;1238;59752;-75
2024/01/04 09:42:17;;;;;;;20.40;15.50;;;;;;;7.14;100.00;95903.58;110375;1241;71220;-76
2024/01/04 09:44:48;;;;;;;11.80;8.80;;;;;;;7.08;100.00;95905.59;110408;1241;68137;-75
2024/01/04 09:47:27;;;;;;;12.60;8.10;;;;;;;7.03;100.00;95908.98;110390;1241;69908;-75
2024/01/04 09:49:59;;;;;;;9.70;7.10;;;;;;;7.05;100.00;95906.58;110373;1248;59730;-73
2024/01/04 09:52:31;;;;;;;10.30;6.30;;;;;;;7.06;100.00;95907.16;110403;1238;59714;-74
2024/01/04 09:55:03;;;;;;;9.10;6.50;;;;;;;7.06;100.00;95914.95;110500;1238;71055;-76
2024/01/04 09:57:33;;;;;;;7.00;5.50;;;;;;;7.05;100.00;95911.08;110415;1241;69877;-75
2024/01/04 10:00:03;;;;;;;6.80;5.00;;;;;;;7.00;100.00;95911.38;110565;1241;69781;-77
2024/01/04 10:02:42;;;;;;;6.30;4.00;;;;;;;6.97;100.00;95907.91;110342;1241;59753;-76
2024/01/04 10:05:16;;;;;;;5.90;4.50;;;;;;;7.04;100.00;95900.28;110356;1241;59660;-76
2024/01/04 10:08:23;;;;;;;6.50;4.90;;;;;;;7.08;100.00;95898.17;110262;1241;70626;-76
2024/01/04 10:10:56;;;;;;;8.30;6.40;;;;;;;7.11;100.00;95892.59;110310;1241;69815;-78
2024/01/04 10:13:29;;;;;;;5.30;3.70;;;;;;;7.18;100.00;95889.24;110274;1241;69872;-75
2024/01/04 10:16:05;;;;;;;4.30;3.70;;;;;;;7.26;100.00;95888.77;110351;1241;59731;-76
2024/01/04 10:18:35;;;;;;;4.50;3.30;;;;;;;7.29;100.00;95886.95;110296;1241;59712;-77
2024/01/04 10:21:05;;;;;;;4.10;3.00;;;;;;;7.31;100.00;95884.00;110314;1242;72486;-77
2024/01/04 10:23:35;;;;;;;;;;;;;;;7.34;100.00;95882.02;110385;1241;69249;-77
2024/01/04 10:26:13;;;;;;;7.20;3.00;;;;;;;7.36;100.00;95880.62;110425;1242;69425;-78
2024/01/04 10:28:42;;;;;;;4.40;3.00;;;;;;;7.39;100.00;95879.82;110387;1241;59751;-78
2024/01/04 10:31:11;;;;;;;3.90;2.70;;;;;;;7.42;100.00;95876.81;110353;1241;59734;-78
2024/01/04 10:33:42;;;;;;;3.30;3.00;;;;;;;7.43;100.00;95875.67;110343;1240;71354;-78
2024/01/04 10:36:13;;;;;;;3.60;2.90;;;;;;;7.46;100.00;95873.85;110317;1241;69769;-78
2024/01/04 10:38:42;;;;;;;3.40;2.70;;;;;;;7.50;100.00;95862.63;110269;1241;70032;-77
2024/01/04 10:41:11;;;;;;;4.30;2.80;;;;;;;7.50;100.00;95862.13;110302;1241;59705;-79
2024/01/04 10:43:43;;;;;;;4.40;3.00;;;;;;;7.51;100.00;95862.00;110347;1242;59743;-77
2024/01/04 10:46:15;;;;;;;4.90;2.90;;;;;;;7.48;100.00;95864.14;110357;1240;71995;-75
2024/01/04 10:48:48;;;;;;;3.50;2.80;;;;;;;7.50;100.00;95860.56;110310;1242;69847;-76
2024/01/04 10:51:18;;;;;;;4.00;2.70;;;;;;;7.47;100.00;95864.93;110350;1249;69302;-79
2024/01/04 10:53:50;;;;;;;4.60;3.10;;;;;;;7.45;100.00;95868.41;110429;1241;59742;-77
2024/01/04 10:56:19;;;;;;;4.00;2.60;;;;;;;7.47;100.00;95866.71;110416;1241;59663;-76
2024/01/04 10:58:52;;;;;;;4.30;2.60;;;;;;;7.44;100.00;95865.24;110414;1245;72025;-78
2024/01/04 11:01:21;;;;;;;13.30;7.20;;;;;;;7.40;100.00;95862.44;110434;1241;69869;-77
2024/01/04 11:03:58;;;;;;;4.40;3.20;;;;;;;7.34;100.00;95861.04;110099;1241;473699;-78
2024/01/04 11:06:33;;;;;;;7.90;5.20;;;;;;;7.29;100.00;95862.00;110509;1241;59730;-77
2024/01/04 11:09:03;;;;;;;8.90;7.30;;;;;;;7.29;100.00;95860.63;110308;1243;59905;-77
2024/01/04 11:11:37;;;;;;;5.20;4.00;;;;;;;7.29;100.00;95861.95;110517;1241;71937;-76
2024/01/04 11:14:08;;;;;;;5.10;3.10;;;;;;;7.30;100.00;95862.94;110519;1241;69843;-77
2024/01/04 11:16:45;;;;;;;4.80;1.90;;;;;;;7.19;100.00;95860.05;110488;1239;69283;-76
2024/01/04 11:19:46;;;;;;;2.60;2.30;;;;;;;7.22;100.00;95856.71;110480;1241;59737;-77
2024/01/04 11:22:44;;;;;;;2.90;2.20;;;;;;;7.19;100.00;95854.73;110532;1241;59621;-76
2024/01/04 11:25:45;;;;;;;4.30;2.40;;;;;;;7.19;100.00;95853.96;110501;1241;71277;-77
2024/01/04 11:28:16;;;;;;;3.30;2.40;;;;;;;7.23;100.00;95853.30;110557;1242;69494;-77
2024/01/04 11:31:02;;;;;;;4.30;2.50;;;;;;;7.22;100.00;95859.77;110434;1238;69898;-76
2024/01/04 11:33:33;;;;;;;5.00;3.40;;;;;;;7.21;100.00;95865.20;110461;1242;59684;-77
2024/01/04 11:36:04;;;;;;;6.30;2.80;;;;;;;7.20;100.00;95865.32;110308;1242;59695;-76
2024/01/04 11:38:34;;;;;;;3.10;2.50;;;;;;;7.20;100.00;95868.31;110440;1238;70652;-78
2024/01/04 11:41:04;;;;;;;3.30;2.30;;;;;;;7.09;100.00;95867.77;110472;1242;69032;-79
2024/01/04 11:43:40;;;;;;;5.30;3.60;;;;;;;7.12;100.00;95864.23;110428;1242;69245;-77
2024/01/04 11:46:23;;;;;;;4.80;3.70;;;;;;;7.17;100.00;95862.23;110440;1242;59753;-77